sensor_id;sensor_type;location;lat;lon;timestamp;pressure;altitude;pressure_sealevel;temperature;humidity
80102;BME280;69407;44.966;19.622;2023-06-22T00:00:44;101054.66;;;22.98;79.71
80102;BME280;69407;44.966;19.622;2023-06-22T00:03:10;101045.41;;;23.00;78.69
80102;BME280;69407;44.966;19.622;2023-06-22T00:05:35;101041.28;;;22.87;79.63
80102;BME280;69407;44.966;19.622;2023-06-22T00:08:04;101023.63;;;22.63;82.26
80102;BME280;69407;44.966;19.622;2023-06-22T00:10:30;101019.63;;;22.48;82.21
80102;BME280;69407;44.966;19.622;2023-06-22T00:12:56;101016.31;;;22.85;79.82
80102;BME280;69407;44.966;19.622;2023-06-22T00:15:22;101011.66;;;22.96;78.98
80102;BME280;69407;44.966;19.622;2023-06-22T00:17:48;101014.25;;;23.17;77.59
80102;BME280;69407;44.966;19.622;2023-06-22T00:20:14;101010.09;;;23.13;76.85
80102;BME280;69407;44.966;19.622;2023-06-22T00:22:39;100998.63;;;23.21;76.81
80102;BME280;69407;44.966;19.622;2023-06-22T00:25:08;100996.63;;;23.13;77.51
80102;BME280;69407;44.966;19.622;2023-06-22T00:27:35;101001.38;;;22.71;79.12
80102;BME280;69407;44.966;19.622;2023-06-22T00:30:00;101000.47;;;22.91;79.34
80102;BME280;69407;44.966;19.622;2023-06-22T00:32:26;100993.94;;;23.03;78.82
80102;BME280;69407;44.966;19.622;2023-06-22T00:34:51;100995.78;;;23.13;78.81
80102;BME280;69407;44.966;19.622;2023-06-22T00:37:17;101007.13;;;23.06;78.84
80102;BME280;69407;44.966;19.622;2023-06-22T00:39:43;100998.91;;;22.98;79.91
80102;BME280;69407;44.966;19.622;2023-06-22T00:42:09;100999.19;;;22.95;79.87
80102;BME280;69407;44.966;19.622;2023-06-22T00:44:37;100993.22;;;22.92;80.21
80102;BME280;69407;44.966;19.622;2023-06-22T00:47:03;100992.53;;;22.90;79.59
80102;BME280;69407;44.966;19.622;2023-06-22T00:49:29;100990.94;;;22.87;79.30
80102;BME280;69407;44.966;19.622;2023-06-22T00:51:56;100986.94;;;22.81;80.27
80102;BME280;69407;44.966;19.622;2023-06-22T00:54:22;100989.06;;;22.78;80.17
80102;BME280;69407;44.966;19.622;2023-06-22T00:56:56;100990.19;;;22.75;80.22
80102;BME280;69407;44.966;19.622;2023-06-22T00:59:23;100982.38;;;22.72;80.89
80102;BME280;69407;44.966;19.622;2023-06-22T01:01:49;100991.78;;;22.78;79.67
80102;BME280;69407;44.966;19.622;2023-06-22T01:04:15;100988.63;;;22.73;80.00
80102;BME280;69407;44.966;19.622;2023-06-22T01:07:21;100987.50;;;22.66;81.50
80102;BME280;69407;44.966;19.622;2023-06-22T01:12:47;101001.06;;;22.64;80.59
80102;BME280;69407;44.966;19.622;2023-06-22T01:15:46;100993.56;;;22.58;81.29
80102;BME280;69407;44.966;19.622;2023-06-22T01:18:33;101007.56;;;22.52;81.71
80102;BME280;69407;44.966;19.622;2023-06-22T01:21:02;100997.75;;;22.32;82.21
80102;BME280;69407;44.966;19.622;2023-06-22T01:23:46;101001.41;;;22.21;82.86
80102;BME280;69407;44.966;19.622;2023-06-22T01:26:20;100991.84;;;21.86;84.58
80102;BME280;69407;44.966;19.622;2023-06-22T01:28:53;100989.22;;;21.45;85.98
80102;BME280;69407;44.966;19.622;2023-06-22T01:31:22;100980.66;;;21.60;85.13
80102;BME280;69407;44.966;19.622;2023-06-22T01:33:59;100975.66;;;21.77;84.19
80102;BME280;69407;44.966;19.622;2023-06-22T01:36:26;100974.84;;;21.86;84.19
80102;BME280;69407;44.966;19.622;2023-06-22T01:38:53;100973.53;;;21.50;86.41
80102;BME280;69407;44.966;19.622;2023-06-22T01:41:24;100982.09;;;21.44;87.76
80102;BME280;69407;44.966;19.622;2023-06-22T01:43:50;100972.97;;;21.56;87.30
80102;BME280;69407;44.966;19.622;2023-06-22T01:46:18;100969.50;;;21.23;89.03
80102;BME280;69407;44.966;19.622;2023-06-22T01:48:45;100965.03;;;21.13;90.73
80102;BME280;69407;44.966;19.622;2023-06-22T01:51:11;100963.41;;;21.42;87.58
80102;BME280;69407;44.966;19.622;2023-06-22T01:53:37;100963.41;;;21.42;88.76
80102;BME280;69407;44.966;19.622;2023-06-22T01:56:03;100953.72;;;21.51;87.43
80102;BME280;69407;44.966;19.622;2023-06-22T01:58:29;100961.97;;;21.59;88.04
80102;BME280;69407;44.966;19.622;2023-06-22T02:01:20;100964.19;;;21.54;87.74
80102;BME280;69407;44.966;19.622;2023-06-22T02:03:49;100953.97;;;21.69;86.25
80102;BME280;69407;44.966;19.622;2023-06-22T02:06:23;100942.03;;;21.61;86.69
80102;BME280;69407;44.966;19.622;2023-06-22T02:11:20;100941.25;;;21.80;86.35
80102;BME280;69407;44.966;19.622;2023-06-22T02:13:47;100954.06;;;21.67;86.57
80102;BME280;69407;44.966;19.622;2023-06-22T02:16:14;100965.97;;;21.64;88.06
80102;BME280;69407;44.966;19.622;2023-06-22T02:18:51;100960.38;;;21.77;86.44
80102;BME280;69407;44.966;19.622;2023-06-22T02:21:17;100952.06;;;21.59;88.24
80102;BME280;69407;44.966;19.622;2023-06-22T02:23:43;100942.47;;;21.67;87.62
80102;BME280;69407;44.966;19.622;2023-06-22T02:26:09;100954.06;;;21.67;87.89
80102;BME280;69407;44.966;19.622;2023-06-22T02:28:35;100951.09;;;21.60;88.59
80102;BME280;69407;44.966;19.622;2023-06-22T02:31:00;100952.50;;;21.64;88.21
80102;BME280;69407;44.966;19.622;2023-06-22T02:33:25;100954.22;;;21.65;88.55
80102;BME280;69407;44.966;19.622;2023-06-22T02:35:52;100963.34;;;21.74;87.69
80102;BME280;69407;44.966;19.622;2023-06-22T02:38:18;100960.13;;;21.59;89.10
80102;BME280;69407;44.966;19.622;2023-06-22T02:40:44;100960.13;;;21.59;89.28
80102;BME280;69407;44.966;19.622;2023-06-22T02:43:10;100967.28;;;21.49;90.38
80102;BME280;69407;44.966;19.622;2023-06-22T02:45:35;100970.50;;;21.43;90.73
80102;BME280;69407;44.966;19.622;2023-06-22T02:48:01;100971.53;;;21.52;89.88
80102;BME280;69407;44.966;19.622;2023-06-22T02:50:26;100970.69;;;21.51;90.57
80102;BME280;69407;44.966;19.622;2023-06-22T02:52:52;100972.31;;;21.63;89.89
80102;BME280;69407;44.966;19.622;2023-06-22T02:55:17;100981.44;;;21.72;89.38
80102;BME280;69407;44.966;19.622;2023-06-22T02:57:43;100981.81;;;21.68;90.08
80102;BME280;69407;44.966;19.622;2023-06-22T03:00:10;100995.34;;;21.77;89.33
80102;BME280;69407;44.966;19.622;2023-06-22T03:02:46;101002.19;;;21.81;88.60
80102;BME280;69407;44.966;19.622;2023-06-22T03:05:12;100993.91;;;21.73;89.70
80102;BME280;69407;44.966;19.622;2023-06-22T03:10:13;101000.25;;;21.93;88.97
80102;BME280;69407;44.966;19.622;2023-06-22T03:12:39;101009.56;;;22.10;87.89
80102;BME280;69407;44.966;19.622;2023-06-22T03:15:10;101007.66;;;21.80;89.19
80102;BME280;69407;44.966;19.622;2023-06-22T03:17:37;101020.44;;;21.57;92.03
80102;BME280;69407;44.966;19.622;2023-06-22T03:20:05;101024.78;;;21.79;90.78
80102;BME280;69407;44.966;19.622;2023-06-22T03:22:37;101028.03;;;21.93;89.35
80102;BME280;69407;44.966;19.622;2023-06-22T03:25:02;101024.34;;;21.94;89.42
80102;BME280;69407;44.966;19.622;2023-06-22T03:27:28;101024.78;;;22.00;88.36
80102;BME280;69407;44.966;19.622;2023-06-22T03:29:54;101032.22;;;22.07;89.24
80102;BME280;69407;44.966;19.622;2023-06-22T03:32:19;101021.38;;;22.18;88.60
80102;BME280;69407;44.966;19.622;2023-06-22T03:34:45;101024.81;;;22.30;87.92
80102;BME280;69407;44.966;19.622;2023-06-22T03:37:14;101019.00;;;22.35;87.22
80102;BME280;69407;44.966;19.622;2023-06-22T03:39:40;101021.03;;;22.52;86.25
80102;BME280;69407;44.966;19.622;2023-06-22T03:42:06;101023.72;;;22.52;87.04
80102;BME280;69407;44.966;19.622;2023-06-22T03:44:32;101021.38;;;22.68;85.34
80102;BME280;69407;44.966;19.622;2023-06-22T03:46:58;101031.16;;;22.69;85.56
80102;BME280;69407;44.966;19.622;2023-06-22T03:49:23;101030.47;;;22.77;85.56
80102;BME280;69407;44.966;19.622;2023-06-22T03:51:49;101024.28;;;22.86;85.04
80102;BME280;69407;44.966;19.622;2023-06-22T03:54:14;101036.69;;;22.68;87.11
80102;BME280;69407;44.966;19.622;2023-06-22T03:56:40;101039.66;;;22.55;88.07
80102;BME280;69407;44.966;19.622;2023-06-22T03:59:05;101058.88;;;22.50;88.01
80102;BME280;69407;44.966;19.622;2023-06-22T04:01:31;101065.31;;;22.29;89.33
80102;BME280;69407;44.966;19.622;2023-06-22T04:03:56;101067.00;;;22.20;89.22
80102;BME280;69407;44.966;19.622;2023-06-22T04:06:22;101053.34;;;22.42;88.15
80102;BME280;69407;44.966;19.622;2023-06-22T04:08:47;101065.03;;;22.22;88.33
80102;BME280;69407;44.966;19.622;2023-06-22T04:11:18;101066.91;;;22.31;88.81
80102;BME280;69407;44.966;19.622;2023-06-22T04:13:44;101063.38;;;22.40;86.52
80102;BME280;69407;44.966;19.622;2023-06-22T04:16:10;101068.38;;;22.45;87.30
80102;BME280;69407;44.966;19.622;2023-06-22T04:18:35;101070.13;;;22.65;84.90
80102;BME280;69407;44.966;19.622;2023-06-22T04:21:02;101071.81;;;22.57;85.86
80102;BME280;69407;44.966;19.622;2023-06-22T04:23:27;101071.72;;;22.68;85.37
80102;BME280;69407;44.966;19.622;2023-06-22T04:25:53;101067.44;;;22.65;84.60
80102;BME280;69407;44.966;19.622;2023-06-22T04:28:18;101075.34;;;22.88;83.10
80102;BME280;69407;44.966;19.622;2023-06-22T04:30:44;101072.69;;;23.07;82.21
80102;BME280;69407;44.966;19.622;2023-06-22T04:33:14;101069.22;;;22.86;81.63
80102;BME280;69407;44.966;19.622;2023-06-22T04:35:39;101077.22;;;22.97;81.42
80102;BME280;69407;44.966;19.622;2023-06-22T04:38:08;101076.66;;;23.13;80.89
80102;BME280;69407;44.966;19.622;2023-06-22T04:40:34;101077.81;;;23.20;80.92
80102;BME280;69407;44.966;19.622;2023-06-22T04:42:59;101087.44;;;23.13;82.17
80102;BME280;69407;44.966;19.622;2023-06-22T04:45:28;101075.81;;;23.22;81.86
80102;BME280;69407;44.966;19.622;2023-06-22T04:47:57;101076.97;;;23.29;82.29
80102;BME280;69407;44.966;19.622;2023-06-22T04:50:22;101077.81;;;23.20;83.37
80102;BME280;69407;44.966;19.622;2023-06-22T04:52:49;101091.16;;;23.31;84.60
80102;BME280;69407;44.966;19.622;2023-06-22T04:55:15;101089.59;;;23.38;84.49
80102;BME280;69407;44.966;19.622;2023-06-22T04:57:44;101086.78;;;23.68;82.62
80102;BME280;69407;44.966;19.622;2023-06-22T05:00:18;101084.94;;;23.79;82.29
80102;BME280;69407;44.966;19.622;2023-06-22T05:02:46;101093.88;;;23.70;83.01
80102;BME280;69407;44.966;19.622;2023-06-22T05:05:12;101095.03;;;23.77;82.90
80102;BME280;69407;44.966;19.622;2023-06-22T05:07:44;101096.31;;;23.63;84.30
80102;BME280;69407;44.966;19.622;2023-06-22T05:10:11;101099.28;;;23.70;83.59
80102;BME280;69407;44.966;19.622;2023-06-22T05:12:38;101091.41;;;24.05;82.54
80102;BME280;69407;44.966;19.622;2023-06-22T05:15:05;101104.50;;;24.00;82.33
80102;BME280;69407;44.966;19.622;2023-06-22T05:17:31;101107.38;;;23.89;84.79
80102;BME280;69407;44.966;19.622;2023-06-22T05:19:56;101101.50;;;24.03;84.50
80102;BME280;69407;44.966;19.622;2023-06-22T05:22:22;101096.69;;;23.97;83.67
80102;BME280;69407;44.966;19.622;2023-06-22T05:24:47;101090.53;;;24.14;82.56
80102;BME280;69407;44.966;19.622;2023-06-22T05:27:13;101094.06;;;24.24;83.18
80102;BME280;69407;44.966;19.622;2023-06-22T05:29:39;101092.25;;;24.15;83.59
80102;BME280;69407;44.966;19.622;2023-06-22T05:32:05;101082.50;;;24.42;83.27
80102;BME280;69407;44.966;19.622;2023-06-22T05:34:31;101079.81;;;24.42;82.55
80102;BME280;69407;44.966;19.622;2023-06-22T05:36:57;101085.06;;;24.43;82.57
80102;BME280;69407;44.966;19.622;2023-06-22T05:39:24;101082.81;;;24.29;83.29
80102;BME280;69407;44.966;19.622;2023-06-22T05:41:51;101078.13;;;24.31;83.19
80102;BME280;69407;44.966;19.622;2023-06-22T05:44:17;101086.00;;;24.05;83.08
80102;BME280;69407;44.966;19.622;2023-06-22T05:46:44;101079.63;;;24.53;80.85
80102;BME280;69407;44.966;19.622;2023-06-22T05:49:11;101089.69;;;24.61;80.29
80102;BME280;69407;44.966;19.622;2023-06-22T05:51:37;101082.97;;;24.37;81.49
80102;BME280;69407;44.966;19.622;2023-06-22T05:54:02;101079.00;;;24.32;81.33
80102;BME280;69407;44.966;19.622;2023-06-22T05:56:28;101076.25;;;24.41;80.62
80102;BME280;69407;44.966;19.622;2023-06-22T07:31:44;101093.59;;;27.61;65.88
80102;BME280;69407;44.966;19.622;2023-06-22T07:34:10;101086.16;;;27.96;66.39
80102;BME280;69407;44.966;19.622;2023-06-22T07:36:35;101094.97;;;27.57;63.63
80102;BME280;69407;44.966;19.622;2023-06-22T07:39:02;101085.59;;;28.17;63.04
80102;BME280;69407;44.966;19.622;2023-06-22T07:41:28;101087.66;;;28.15;64.13
80102;BME280;69407;44.966;19.622;2023-06-22T07:43:54;101097.03;;;27.71;64.87
80102;BME280;69407;44.966;19.622;2023-06-22T07:46:19;101084.81;;;28.64;63.42
80102;BME280;69407;44.966;19.622;2023-06-22T07:48:45;101088.03;;;28.59;63.20
80102;BME280;69407;44.966;19.622;2023-06-22T07:51:11;101091.06;;;28.09;59.55
80102;BME280;69407;44.966;19.622;2023-06-22T07:53:39;101087.59;;;28.86;59.45
80102;BME280;69407;44.966;19.622;2023-06-22T07:56:05;101089.94;;;28.98;58.78
80102;BME280;69407;44.966;19.622;2023-06-22T07:58:32;101079.03;;;28.58;57.78
80102;BME280;69407;44.966;19.622;2023-06-22T08:00:59;101074.78;;;29.26;56.97
80102;BME280;69407;44.966;19.622;2023-06-22T08:03:24;101078.59;;;29.86;55.44
80102;BME280;69407;44.966;19.622;2023-06-22T08:05:50;101073.13;;;29.86;53.35
80102;BME280;69407;44.966;19.622;2023-06-22T08:08:15;101059.78;;;30.43;55.07
80102;BME280;69407;44.966;19.622;2023-06-22T08:10:42;101066.84;;;30.88;50.36
80102;BME280;69407;44.966;19.622;2023-06-22T08:13:08;101063.25;;;30.37;52.83
80102;BME280;69407;44.966;19.622;2023-06-22T08:15:33;101066.84;;;31.89;51.14
80102;BME280;69407;44.966;19.622;2023-06-22T08:17:59;101063.72;;;31.92;50.56
80102;BME280;69407;44.966;19.622;2023-06-22T08:20:26;101062.19;;;32.93;46.52
80102;BME280;69407;44.966;19.622;2023-06-22T08:22:53;101062.34;;;34.77;41.17
80102;BME280;69407;44.966;19.622;2023-06-22T08:25:19;101064.16;;;33.12;46.19
80102;BME280;69407;44.966;19.622;2023-06-22T08:27:46;101060.75;;;33.04;47.48
80102;BME280;69407;44.966;19.622;2023-06-22T08:30:14;101067.25;;;32.14;49.55
80102;BME280;69407;44.966;19.622;2023-06-22T08:32:40;101064.56;;;31.92;50.71
80102;BME280;69407;44.966;19.622;2023-06-22T08:35:06;101064.25;;;32.37;48.99
80102;BME280;69407;44.966;19.622;2023-06-22T08:37:35;101069.22;;;32.26;49.83
80102;BME280;69407;44.966;19.622;2023-06-22T08:40:03;101070.75;;;31.58;49.18
80102;BME280;69407;44.966;19.622;2023-06-22T08:42:36;101064.66;;;31.77;49.94
80102;BME280;69407;44.966;19.622;2023-06-22T08:45:02;101059.34;;;31.12;51.00
80102;BME280;69407;44.966;19.622;2023-06-22T08:47:28;101055.84;;;31.82;50.07
80102;BME280;69407;44.966;19.622;2023-06-22T08:49:54;101063.25;;;31.39;49.57
80102;BME280;69407;44.966;19.622;2023-06-22T08:52:19;101058.63;;;32.17;47.47
80102;BME280;69407;44.966;19.622;2023-06-22T08:54:46;101055.59;;;32.33;47.61
80102;BME280;69407;44.966;19.622;2023-06-22T08:57:11;101048.50;;;32.11;49.53
80102;BME280;69407;44.966;19.622;2023-06-22T08:59:37;101056.34;;;31.64;51.16
80102;BME280;69407;44.966;19.622;2023-06-22T09:02:03;101050.28;;;32.59;49.11
80102;BME280;69407;44.966;19.622;2023-06-22T09:04:28;101051.31;;;31.89;47.39
80102;BME280;69407;44.966;19.622;2023-06-22T09:06:54;101048.03;;;32.07;47.92
80102;BME280;69407;44.966;19.622;2023-06-22T09:09:21;101043.28;;;32.16;50.47
80102;BME280;69407;44.966;19.622;2023-06-22T09:11:47;101047.47;;;32.12;48.28
80102;BME280;69407;44.966;19.622;2023-06-22T09:14:12;101046.41;;;32.88;48.76
80102;BME280;69407;44.966;19.622;2023-06-22T09:16:38;101036.66;;;32.31;47.30
80102;BME280;69407;44.966;19.622;2023-06-22T09:19:03;101052.47;;;31.59;49.52
80102;BME280;69407;44.966;19.622;2023-06-22T09:21:29;101049.16;;;32.19;49.56
80102;BME280;69407;44.966;19.622;2023-06-22T09:23:54;101038.66;;;32.51;47.76
80102;BME280;69407;44.966;19.622;2023-06-22T09:26:21;101037.81;;;32.50;49.40
80102;BME280;69407;44.966;19.622;2023-06-22T09:28:47;101038.03;;;31.65;49.56
80102;BME280;69407;44.966;19.622;2023-06-22T09:31:13;101045.56;;;31.84;48.72
80102;BME280;69407;44.966;19.622;2023-06-22T09:33:40;101031.81;;;32.33;49.05
80102;BME280;69407;44.966;19.622;2023-06-22T09:36:06;101038.91;;;32.28;48.77
80102;BME280;69407;44.966;19.622;2023-06-22T09:38:38;101038.69;;;32.23;47.98
80102;BME280;69407;44.966;19.622;2023-06-22T09:41:04;101040.31;;;32.11;46.57
80102;BME280;69407;44.966;19.622;2023-06-22T09:43:31;101036.53;;;32.53;47.95
80102;BME280;69407;44.966;19.622;2023-06-22T09:45:57;101049.72;;;32.08;46.68
80102;BME280;69407;44.966;19.622;2023-06-22T09:48:23;101044.59;;;32.61;47.97
80102;BME280;69407;44.966;19.622;2023-06-22T09:50:48;101038.59;;;32.44;51.56
80102;BME280;69407;44.966;19.622;2023-06-22T09:53:14;101045.44;;;32.61;50.17
80102;BME280;69407;44.966;19.622;2023-06-22T09:55:39;101046.03;;;32.22;50.01
80102;BME280;69407;44.966;19.622;2023-06-22T09:58:05;101043.84;;;31.76;48.78
80102;BME280;69407;44.966;19.622;2023-06-22T10:00:30;101045.81;;;32.52;48.30
80102;BME280;69407;44.966;19.622;2023-06-22T10:02:57;101044.44;;;32.00;48.25
80102;BME280;69407;44.966;19.622;2023-06-22T10:05:23;101040.69;;;32.42;48.20
80102;BME280;69407;44.966;19.622;2023-06-22T10:07:48;101039.91;;;32.48;46.53
80102;BME280;69407;44.966;19.622;2023-06-22T10:10:14;101049.25;;;32.74;46.80
80102;BME280;69407;44.966;19.622;2023-06-22T10:12:47;101055.06;;;33.05;44.55
80102;BME280;69407;44.966;19.622;2023-06-22T10:15:14;101039.25;;;33.07;43.85
80102;BME280;69407;44.966;19.622;2023-06-22T10:17:40;101045.16;;;32.98;46.73
80102;BME280;69407;44.966;19.622;2023-06-22T10:20:06;101031.63;;;32.35;45.84
80102;BME280;69407;44.966;19.622;2023-06-22T10:22:41;101043.28;;;32.57;47.79
80102;BME280;69407;44.966;19.622;2023-06-22T10:25:07;101045.88;;;33.33;45.27
80102;BME280;69407;44.966;19.622;2023-06-22T10:27:33;101036.31;;;32.96;44.74
80102;BME280;69407;44.966;19.622;2023-06-22T10:29:59;101039.28;;;33.14;43.48
80102;BME280;69407;44.966;19.622;2023-06-22T10:32:24;101041.75;;;32.89;42.50
80102;BME280;69407;44.966;19.622;2023-06-22T10:34:50;101038.03;;;33.23;41.59
80102;BME280;69407;44.966;19.622;2023-06-22T10:37:15;101037.88;;;33.51;44.00
80102;BME280;69407;44.966;19.622;2023-06-22T17:05:33;100769.75;;;31.48;48.23
80102;BME280;69407;44.966;19.622;2023-06-22T17:08:01;100770.44;;;31.57;48.43
80102;BME280;69407;44.966;19.622;2023-06-22T17:10:29;100767.50;;;31.52;46.50
80102;BME280;69407;44.966;19.622;2023-06-22T17:12:57;100769.59;;;31.56;48.82
80102;BME280;69407;44.966;19.622;2023-06-22T17:15:22;100770.88;;;31.60;47.54
80102;BME280;69407;44.966;19.622;2023-06-22T17:17:50;100771.91;;;31.53;47.16
80102;BME280;69407;44.966;19.622;2023-06-22T17:20:17;100772.78;;;31.66;49.61
80102;BME280;69407;44.966;19.622;2023-06-22T17:22:46;100773.59;;;31.60;49.57
80102;BME280;69407;44.966;19.622;2023-06-22T17:25:14;100767.25;;;31.46;48.97
80102;BME280;69407;44.966;19.622;2023-06-22T17:27:39;100776.13;;;31.20;50.68
80102;BME280;69407;44.966;19.622;2023-06-22T17:30:09;100774.63;;;31.18;49.96
80102;BME280;69407;44.966;19.622;2023-06-22T17:32:36;100768.00;;;31.34;51.10
80102;BME280;69407;44.966;19.622;2023-06-22T17:35:04;100764.41;;;30.99;49.51
80102;BME280;69407;44.966;19.622;2023-06-22T17:37:45;100770.16;;;31.10;48.98
80102;BME280;69407;44.966;19.622;2023-06-22T17:40:14;100765.44;;;30.91;49.13
80102;BME280;69407;44.966;19.622;2023-06-22T17:42:40;100765.81;;;30.88;48.49
80102;BME280;69407;44.966;19.622;2023-06-22T17:45:15;100763.16;;;30.67;48.49
80102;BME280;69407;44.966;19.622;2023-06-22T17:47:42;100760.47;;;30.73;48.70
80102;BME280;69407;44.966;19.622;2023-06-22T17:50:08;100763.53;;;30.42;50.38
80102;BME280;69407;44.966;19.622;2023-06-22T17:52:34;100762.75;;;29.69;55.16
80102;BME280;69407;44.966;19.622;2023-06-22T17:55:01;100768.38;;;29.68;56.20
80102;BME280;69407;44.966;19.622;2023-06-22T17:57:35;100766.50;;;29.39;58.34
80102;BME280;69407;44.966;19.622;2023-06-22T18:00:03;100764.38;;;29.34;59.35
80102;BME280;69407;44.966;19.622;2023-06-22T18:02:36;100767.00;;;29.28;59.76
80102;BME280;69407;44.966;19.622;2023-06-22T18:05:05;100767.44;;;29.31;60.89
80102;BME280;69407;44.966;19.622;2023-06-22T18:07:33;100768.78;;;29.21;60.96
80102;BME280;69407;44.966;19.622;2023-06-22T18:10:03;100766.53;;;29.09;62.02
80102;BME280;69407;44.966;19.622;2023-06-22T18:12:29;100760.59;;;29.06;62.98
80102;BME280;69407;44.966;19.622;2023-06-22T18:14:55;100759.09;;;29.03;62.43
80102;BME280;69407;44.966;19.622;2023-06-22T18:17:21;100760.44;;;28.70;63.27
80102;BME280;69407;44.966;19.622;2023-06-22T18:19:47;100762.63;;;28.74;62.98
80102;BME280;69407;44.966;19.622;2023-06-22T18:22:13;100763.31;;;28.53;64.10
80102;BME280;69407;44.966;19.622;2023-06-22T18:24:42;100762.09;;;28.56;64.78
80102;BME280;69407;44.966;19.622;2023-06-22T18:27:13;100763.69;;;28.50;64.54
80102;BME280;69407;44.966;19.622;2023-06-22T18:29:41;100771.13;;;28.34;65.11
80102;BME280;69407;44.966;19.622;2023-06-22T18:32:07;100767.38;;;28.12;66.16
80102;BME280;69407;44.966;19.622;2023-06-22T18:34:33;100771.41;;;28.16;66.92
80102;BME280;69407;44.966;19.622;2023-06-22T18:37:00;100781.78;;;28.12;66.51
80102;BME280;69407;44.966;19.622;2023-06-22T18:39:29;100775.94;;;28.00;67.44
80102;BME280;69407;44.966;19.622;2023-06-22T18:41:59;100787.59;;;27.78;67.94
80102;BME280;69407;44.966;19.622;2023-06-22T18:44:40;100783.97;;;27.86;67.50
80102;BME280;69407;44.966;19.622;2023-06-22T18:47:07;100787.81;;;27.60;68.52
80102;BME280;69407;44.966;19.622;2023-06-22T18:54:39;100784.41;;;27.27;70.25
80102;BME280;69407;44.966;19.622;2023-06-22T18:57:24;100792.88;;;27.24;69.56
80102;BME280;69407;44.966;19.622;2023-06-22T19:05:40;100805.47;;;27.09;70.40
80102;BME280;69407;44.966;19.622;2023-06-22T19:08:07;100801.22;;;26.98;70.51
80102;BME280;69407;44.966;19.622;2023-06-22T19:13:29;100804.63;;;26.84;71.14
80102;BME280;69407;44.966;19.622;2023-06-22T19:18:36;100808.53;;;26.73;72.12
80102;BME280;69407;44.966;19.622;2023-06-22T19:21:09;100813.59;;;26.52;73.18
80102;BME280;69407;44.966;19.622;2023-06-22T19:23:39;100816.50;;;26.58;72.97
80102;BME280;69407;44.966;19.622;2023-06-22T19:26:12;100821.25;;;26.56;72.74
80102;BME280;69407;44.966;19.622;2023-06-22T19:31:14;100832.22;;;26.39;73.93
80102;BME280;69407;44.966;19.622;2023-06-22T19:33:40;100831.00;;;26.25;74.05
80102;BME280;69407;44.966;19.622;2023-06-22T19:36:06;100826.94;;;26.21;74.43
80102;BME280;69407;44.966;19.622;2023-06-22T19:38:32;100833.84;;;26.07;74.82
80102;BME280;69407;44.966;19.622;2023-06-22T19:40:59;100831.97;;;25.99;75.49
80102;BME280;69407;44.966;19.622;2023-06-22T19:43:29;100834.97;;;25.88;75.66
80102;BME280;69407;44.966;19.622;2023-06-22T19:45:55;100836.69;;;25.97;74.96
80102;BME280;69407;44.966;19.622;2023-06-22T19:48:24;100832.09;;;25.90;75.85
80102;BME280;69407;44.966;19.622;2023-06-22T19:50:51;100837.66;;;25.88;75.56
80102;BME280;69407;44.966;19.622;2023-06-22T19:53:16;100840.66;;;25.69;77.08
80102;BME280;69407;44.966;19.622;2023-06-22T19:55:44;100831.53;;;25.70;76.51
80102;BME280;69407;44.966;19.622;2023-06-22T19:58:14;100835.84;;;25.63;77.07
80102;BME280;69407;44.966;19.622;2023-06-22T20:00:41;100830.44;;;25.63;77.08
80102;BME280;69407;44.966;19.622;2023-06-22T20:03:30;100833.59;;;25.50;77.60
80102;BME280;69407;44.966;19.622;2023-06-22T20:08:45;100828.50;;;25.47;77.33
80102;BME280;69407;44.966;19.622;2023-06-22T20:11:11;100834.81;;;25.30;78.15
80102;BME280;69407;44.966;19.622;2023-06-22T20:13:46;100831.69;;;25.42;78.10
80102;BME280;69407;44.966;19.622;2023-06-22T20:16:12;100834.03;;;25.37;79.01
80102;BME280;69407;44.966;19.622;2023-06-22T20:18:41;100817.13;;;25.35;78.42
80102;BME280;69407;44.966;19.622;2023-06-22T20:21:13;100825.66;;;25.49;77.44
80102;BME280;69407;44.966;19.622;2023-06-22T20:23:40;100827.38;;;25.24;78.77
80102;BME280;69407;44.966;19.622;2023-06-22T20:26:12;100825.13;;;25.19;78.76
80102;BME280;69407;44.966;19.622;2023-06-22T20:28:43;100818.94;;;25.27;78.95
80102;BME280;69407;44.966;19.622;2023-06-22T20:31:09;100819.25;;;25.24;78.78
80102;BME280;69407;44.966;19.622;2023-06-22T20:33:37;100820.25;;;24.97;80.17
80102;BME280;69407;44.966;19.622;2023-06-22T20:36:06;100822.59;;;25.18;78.67
80102;BME280;69407;44.966;19.622;2023-06-22T20:38:32;100826.47;;;25.15;79.20
80102;BME280;69407;44.966;19.622;2023-06-22T20:40:59;100824.09;;;25.12;79.53
80102;BME280;69407;44.966;19.622;2023-06-22T20:43:24;100829.34;;;25.13;79.36
80102;BME280;69407;44.966;19.622;2023-06-22T20:45:53;100820.69;;;25.10;78.79
80102;BME280;69407;44.966;19.622;2023-06-22T20:48:21;100814.50;;;25.00;79.30
80102;BME280;69407;44.966;19.622;2023-06-22T20:50:48;100812.13;;;24.97;79.32
80102;BME280;69407;44.966;19.622;2023-06-22T20:53:13;100811.91;;;24.90;79.91
80102;BME280;69407;44.966;19.622;2023-06-22T20:55:39;100812.22;;;24.87;80.24
80102;BME280;69407;44.966;19.622;2023-06-22T20:58:06;100814.84;;;24.79;80.72
80102;BME280;69407;44.966;19.622;2023-06-22T21:00:32;100812.09;;;24.71;80.96
80102;BME280;69407;44.966;19.622;2023-06-22T21:03:01;100809.78;;;24.76;80.68
80102;BME280;69407;44.966;19.622;2023-06-22T21:05:26;100808.94;;;24.75;81.13
80102;BME280;69407;44.966;19.622;2023-06-22T21:07:52;100808.41;;;24.72;81.55
80102;BME280;69407;44.966;19.622;2023-06-22T21:10:17;100804.63;;;24.65;81.46